1898 Tropical Storm NOT_NAMED (1898313N31314)


IBTrACS version v04r00. Visit IBTrACS website for data access.
Please direct all questions to the IBTrACS Q and A forum

Storm track - Intensity - Wind Radii - Intensity Data - Source Data - All data

Summary Information

Storm ID 1898313N31314
Start Nov 8 12Z
Max Intensity 60 kt (Nov 10 12Z)
End Nov 16 00Z
ATCF IDs
Track status Best track data.

Storm track plot

Map of storm track

Intensity plots

Map of storm track

Radial wind information

No radial wind information for this storm


Position and Intensity Table

BASIN ISO_TIME_________ NATURE LAT LON MLC WIND
degrees north degrees east kts
NA 1898-11-08 12:00:00 TS 31.00 -46.00 30
NA 15:00:00 TS 31.01 -46.20 32
NA 18:00:00 SS 31.00 -46.40 35
NA 21:00:00 SS 30.96 -46.60 37
NA 1898-11-09 00:00:00 SS 31.00 -46.80 40
NA 03:00:00 SS 31.21 -47.01 40
NA 06:00:00 SS 31.50 -47.20 40
NA 09:00:00 SS 31.81 -47.29 42
NA 12:00:00 SS 32.00 -47.50 45
NA 15:00:00 SS 31.92 -48.04 45
NA 18:00:00 TS 31.70 -48.70 45
NA 21:00:00 TS 31.51 -49.26 47
NA 1898-11-10 00:00:00 TS 31.30 -49.80 50
NA 03:00:00 TS 31.10 -50.35 52
NA 06:00:00 TS 30.90 -50.90 55
NA 09:00:00 TS 30.70 -51.51 57
NA 12:00:00 TS 30.50 -52.00 60
NA 15:00:00 TS 30.30 -52.21 60
NA 18:00:00 TS 30.10 -52.30 60
NA 21:00:00 TS 29.91 -52.45 57
NA 1898-11-11 00:00:00 TS 29.70 -52.60 55
NA 03:00:00 TS 29.45 -52.75 55
NA 06:00:00 TS 29.20 -52.90 55
NA 09:00:00 TS 29.07 -53.06 52
NA 12:00:00 TS 28.80 -53.20 50
NA 15:00:00 TS 28.13 -53.31 50
NA 18:00:00 TS 27.30 -53.40 50
NA 21:00:00 TS 26.36 -53.50 47
NA 1898-11-12 00:00:00 TS 25.80 -53.60 45
NA 03:00:00 TS 26.10 -53.70 45
NA 06:00:00 TS 26.80 -53.80 45
NA 09:00:00 TS 27.47 -53.97 45
NA 12:00:00 TS 28.00 -54.00 45
NA 15:00:00 TS 28.09 -53.71 45
NA 18:00:00 TS 28.00 -53.30 45
NA 21:00:00 TS 28.00 -52.99 45
NA 1898-11-13 00:00:00 TS 28.00 -52.70 45
NA 03:00:00 TS 28.00 -52.40 42
NA 06:00:00 TS 28.00 -52.10 40
NA 09:00:00 TS 27.92 -51.80 40
NA 12:00:00 TS 28.00 -51.50 40
NA 15:00:00 TS 28.42 -51.20 40
NA 18:00:00 TS 29.00 -50.90 40
NA 21:00:00 TS 29.50 -50.60 40
NA 1898-11-14 00:00:00 TS 30.00 -50.30 40
NA 03:00:00 TS 30.50 -50.01 40
NA 06:00:00 TS 31.00 -49.70 40
NA 09:00:00 TS 31.58 -49.34 37
NA 12:00:00 TS 32.00 -49.00 35
NA 15:00:00 TS 32.07 -48.73 35
NA 18:00:00 TS 32.00 -48.50 35
NA 21:00:00 TS 32.00 -48.25 32
NA 1898-11-15 00:00:00 ET 32.00 -48.00 30
NA 03:00:00 ET 32.00 -47.75 30
NA 06:00:00 ET 32.00 -47.50 30
NA 09:00:00 ET 31.83 -47.29 30
NA 12:00:00 ET 32.00 -47.00 30
NA 15:00:00 ET 32.94 -46.50 27
NA 18:00:00 ET 34.20 -45.90 25
NA 21:00:00 ET 35.32 -45.30 25
NA 1898-11-16 00:00:00 ET 36.30 -44.70 25

Source Information

Agency Information
USA
TOKYO
CMA
HKO
NEWDELHI
REUNION
BOM
NADI
WELLINGTON
DS824
TD9636
TD9635
NEUMANN
MLC

All available IBTrACS Data

SEASON BASIN SUBBASIN ISO_TIME_________ NATURE LAT LON DIST2LAND LANDFALL IFLAG USA SSHS MLC LAT MLC LON MLC CLASS MLC WIND STORM SPEED STORM DIR
Year degrees north degrees east km km 1 degrees north degrees east kts kts degrees
1898 NA NA 1898-11-08 12:00:00 TS 31.00 -46.00 1842 1837 _____________O -1 31.00 -46.00 TD 30 3 274
1898 NA NA 15:00:00 TS 31.01 -46.20 1837 1831 _____________P -1 31.01 -46.20 TD 32 3 270
1898 NA NA 18:00:00 SS 31.00 -46.40 1831 1826 _____________O -1 31.00 -46.40 SS 35 3 262
1898 NA NA 21:00:00 SS 30.96 -46.60 1826 1821 _____________P -1 30.96 -46.60 SS 37 3 270
1898 NA NA 1898-11-09 00:00:00 SS 31.00 -46.80 1821 1794 _____________O -1 31.00 -46.80 SS 40 4 306
1898 NA NA 03:00:00 SS 31.21 -47.01 1794 1757 _____________P -1 31.21 -47.01 SS 40 6 326
1898 NA NA 06:00:00 SS 31.50 -47.20 1757 1722 _____________O -1 31.50 -47.20 SS 40 6 338
1898 NA NA 09:00:00 SS 31.81 -47.29 1722 1695 _____________P -1 31.81 -47.29 SS 42 6 333
1898 NA NA 12:00:00 SS 32.00 -47.50 1695 1686 _____________O -1 32.00 -47.50 SS 45 6 280
1898 NA NA 15:00:00 SS 31.92 -48.04 1695 1688 _____________P -1 31.92 -48.04 SS 45 11 254
1898 NA NA 18:00:00 TS 31.70 -48.70 1702 1700 _____________O -1 31.70 -48.70 TS 45 11 248
1898 NA NA 21:00:00 TS 31.51 -49.26 1713 1711 _____________P -1 31.51 -49.26 TS 47 10 247
1898 NA NA 1898-11-10 00:00:00 TS 31.30 -49.80 1727 1726 _____________O -1 31.30 -49.80 TS 50 10 246
1898 NA NA 03:00:00 TS 31.10 -50.35 1743 1740 _____________P -1 31.10 -50.35 TS 52 10 247
1898 NA NA 06:00:00 TS 30.90 -50.90 1758 1757 _____________O -1 30.90 -50.90 TS 55 11 248
1898 NA NA 09:00:00 TS 30.70 -51.51 1776 1775 _____________P -1 30.70 -51.51 TS 57 10 247
1898 NA NA 12:00:00 TS 30.50 -52.00 1795 1794 _____________O -1 30.50 -52.00 TS 60 7 236
1898 NA NA 15:00:00 TS 30.30 -52.21 1816 1816 _____________P -1 30.30 -52.21 TS 60 5 213
1898 NA NA 18:00:00 TS 30.10 -52.30 1838 1838 _____________O -1 30.10 -52.30 TS 60 4 208
1898 NA NA 21:00:00 TS 29.91 -52.45 1852 1823 _____________P -1 29.91 -52.45 TS 57 5 213
1898 NA NA 1898-11-11 00:00:00 TS 29.70 -52.60 1823 1801 _____________O -1 29.70 -52.60 TS 55 5 210
1898 NA NA 03:00:00 TS 29.45 -52.75 1794 1765 _____________P -1 29.45 -52.75 TS 55 6 208
1898 NA NA 06:00:00 TS 29.20 -52.90 1765 1750 _____________O -1 29.20 -52.90 TS 55 5 216
1898 NA NA 09:00:00 TS 29.07 -53.06 1743 1714 _____________P -1 29.07 -53.06 TS 52 5 213
1898 NA NA 12:00:00 TS 28.80 -53.20 1714 1664 _____________O -1 28.80 -53.20 TS 50 10 193
1898 NA NA 15:00:00 TS 28.13 -53.31 1657 1602 _____________P -1 28.13 -53.31 TS 50 15 187
1898 NA NA 18:00:00 TS 27.30 -53.40 1595 1530 _____________O -1 27.30 -53.40 TS 50 18 186
1898 NA NA 21:00:00 TS 26.36 -53.50 1530 1485 _____________P -1 26.36 -53.50 TS 47 15 187
1898 NA NA 1898-11-12 00:00:00 TS 25.80 -53.60 1485 1483 _____________O -1 25.80 -53.60 TS 45 3 214
1898 NA NA 03:00:00 TS 26.10 -53.70 1495 1495 _____________P -1 26.10 -53.70 TS 45 10 350
1898 NA NA 06:00:00 TS 26.80 -53.80 1530 1530 _____________O -1 26.80 -53.80 TS 45 14 350
1898 NA NA 09:00:00 TS 27.47 -53.97 1561 1561 _____________P -1 27.47 -53.97 TS 45 12 352
1898 NA NA 12:00:00 TS 28.00 -54.00 1596 1596 _____________O -1 28.00 -54.00 TS 45 7 20
1898 NA NA 15:00:00 TS 28.09 -53.71 1626 1626 _____________P -1 28.09 -53.71 TS 45 6 90
1898 NA NA 18:00:00 TS 28.00 -53.30 1650 1650 _____________O -1 28.00 -53.30 TS 45 6 98
1898 NA NA 21:00:00 TS 28.00 -52.99 1673 1673 _____________P -1 28.00 -52.99 TS 45 5 90
1898 NA NA 1898-11-13 00:00:00 TS 28.00 -52.70 1697 1697 _____________O -1 28.00 -52.70 TS 45 5 90
1898 NA NA 03:00:00 TS 28.00 -52.40 1720 1720 _____________P -1 28.00 -52.40 TS 42 5 90
1898 NA NA 06:00:00 TS 28.00 -52.10 1744 1744 _____________O -1 28.00 -52.10 TS 40 5 98
1898 NA NA 09:00:00 TS 27.92 -51.80 1762 1762 _____________P -1 27.92 -51.80 TS 40 5 90
1898 NA NA 12:00:00 TS 28.00 -51.50 1793 1793 _____________O -1 28.00 -51.50 TS 40 7 47
1898 NA NA 15:00:00 TS 28.42 -51.20 1842 1842 _____________P -1 28.42 -51.20 TS 40 11 28
1898 NA NA 18:00:00 TS 29.00 -50.90 1904 1904 _____________O -1 29.00 -50.90 TS 40 12 26
1898 NA NA 21:00:00 TS 29.50 -50.60 1917 1865 _____________P -1 29.50 -50.60 TS 40 11 28
1898 NA NA 1898-11-14 00:00:00 TS 30.00 -50.30 1865 1813 _____________O -1 30.00 -50.30 TS 40 11 27
1898 NA NA 03:00:00 TS 30.50 -50.01 1813 1762 _____________P -1 30.50 -50.01 TS 40 11 27
1898 NA NA 06:00:00 TS 31.00 -49.70 1762 1711 _____________O -1 31.00 -49.70 TS 40 12 28
1898 NA NA 09:00:00 TS 31.58 -49.34 1702 1662 _____________P -1 31.58 -49.34 TS 37 12 31
1898 NA NA 12:00:00 TS 32.00 -49.00 1663 1654 _____________O -1 32.00 -49.00 TS 35 7 46
1898 NA NA 15:00:00 TS 32.07 -48.73 1658 1658 _____________P -1 32.07 -48.73 TS 35 4 90
1898 NA NA 18:00:00 TS 32.00 -48.50 1673 1673 _____________O -1 32.00 -48.50 TS 35 4 100
1898 NA NA 21:00:00 TS 32.00 -48.25 1679 1677 _____________P -1 32.00 -48.25 TS 32 4 90
1898 NA NA 1898-11-15 00:00:00 ET 32.00 -48.00 1684 1684 _____________O -1 32.00 -48.00 EX 30 4 90
1898 NA NA 03:00:00 ET 32.00 -47.75 1691 1688 _____________P -1 32.00 -47.75 EX 30 4 90
1898 NA NA 06:00:00 ET 32.00 -47.50 1695 1695 _____________O -1 32.00 -47.50 EX 30 4 113
1898 NA NA 09:00:00 ET 31.83 -47.29 1722 1708 _____________P -1 31.83 -47.29 EX 30 4 90
1898 NA NA 12:00:00 ET 32.00 -47.00 1708 1626 _____________O -1 32.00 -47.00 EX 30 13 31
1898 NA NA 15:00:00 ET 32.94 -46.50 1626 1516 _____________P -1 32.94 -46.50 EX 27 24 23
1898 NA NA 18:00:00 ET 34.20 -45.90 1509 1418 _____________O -1 34.20 -45.90 EX 25 26 23
1898 NA NA 21:00:00 ET 35.32 -45.30 1418 1349 _____________P -1 35.32 -45.30 EX 25 23 25
1898 NA NA 1898-11-16 00:00:00 ET 36.30 -44.70 1344 _____________O -1 36.30 -44.70 EX 25 22 26